sensor_id;sensor_type;location;lat;lon;timestamp;P1;durP1;ratioP1;P2;durP2;ratioP2
60370;SDS011;48550;40.588;49.684;2023-03-03T00:01:18;8.45;;;4.70;;
60370;SDS011;48550;40.588;49.684;2023-03-03T00:03:44;7.60;;;4.10;;
60370;SDS011;48550;40.588;49.684;2023-03-03T00:06:11;11.85;;;5.25;;
60370;SDS011;48550;40.588;49.684;2023-03-03T00:08:39;10.35;;;4.93;;
60370;SDS011;48550;40.588;49.684;2023-03-03T00:11:05;10.88;;;4.35;;
60370;SDS011;48550;40.588;49.684;2023-03-03T00:13:32;12.63;;;4.65;;
60370;SDS011;48550;40.588;49.684;2023-03-03T00:18:53;8.20;;;4.80;;
60370;SDS011;48550;40.588;49.684;2023-03-03T00:23:46;9.30;;;5.22;;
60370;SDS011;48550;40.588;49.684;2023-03-03T00:26:45;14.55;;;4.82;;
60370;SDS011;48550;40.588;49.684;2023-03-03T00:29:54;9.53;;;5.00;;
60370;SDS011;48550;40.588;49.684;2023-03-03T00:32:09;9.45;;;4.93;;
60370;SDS011;48550;40.588;49.684;2023-03-03T00:34:48;9.32;;;4.40;;
60370;SDS011;48550;40.588;49.684;2023-03-03T00:39:51;8.70;;;4.47;;
60370;SDS011;48550;40.588;49.684;2023-03-03T00:42:18;8.90;;;4.28;;
60370;SDS011;48550;40.588;49.684;2023-03-03T00:49:44;10.85;;;4.57;;
60370;SDS011;48550;40.588;49.684;2023-03-03T00:52:15;10.10;;;4.47;;
60370;SDS011;48550;40.588;49.684;2023-03-03T00:54:42;8.27;;;4.65;;
60370;SDS011;48550;40.588;49.684;2023-03-03T00:57:08;11.40;;;4.13;;
60370;SDS011;48550;40.588;49.684;2023-03-03T00:59:36;7.90;;;4.22;;
60370;SDS011;48550;40.588;49.684;2023-03-03T01:02:03;9.43;;;4.70;;
60370;SDS011;48550;40.588;49.684;2023-03-03T01:04:29;18.13;;;4.97;;
60370;SDS011;48550;40.588;49.684;2023-03-03T01:06:54;8.93;;;4.13;;
60370;SDS011;48550;40.588;49.684;2023-03-03T01:09:20;9.10;;;4.47;;
60370;SDS011;48550;40.588;49.684;2023-03-03T01:11:46;7.95;;;4.40;;
60370;SDS011;48550;40.588;49.684;2023-03-03T01:14:12;9.13;;;4.53;;
60370;SDS011;48550;40.588;49.684;2023-03-03T01:16:38;10.20;;;4.90;;
60370;SDS011;48550;40.588;49.684;2023-03-03T01:19:05;7.68;;;4.32;;
60370;SDS011;48550;40.588;49.684;2023-03-03T01:21:31;11.63;;;5.00;;
60370;SDS011;48550;40.588;49.684;2023-03-03T01:23:57;7.47;;;4.40;;
60370;SDS011;48550;40.588;49.684;2023-03-03T01:26:23;8.05;;;4.25;;
60370;SDS011;48550;40.588;49.684;2023-03-03T01:28:49;7.18;;;4.40;;
60370;SDS011;48550;40.588;49.684;2023-03-03T01:31:14;9.38;;;4.70;;
60370;SDS011;48550;40.588;49.684;2023-03-03T01:33:40;8.25;;;4.32;;
60370;SDS011;48550;40.588;49.684;2023-03-03T01:36:06;7.75;;;4.30;;
60370;SDS011;48550;40.588;49.684;2023-03-03T01:38:34;7.40;;;3.58;;
60370;SDS011;48550;40.588;49.684;2023-03-03T01:41:01;8.10;;;4.47;;
60370;SDS011;48550;40.588;49.684;2023-03-03T01:43:30;8.82;;;4.13;;
60370;SDS011;48550;40.588;49.684;2023-03-03T01:48:35;8.20;;;4.10;;
60370;SDS011;48550;40.588;49.684;2023-03-03T01:51:14;6.97;;;3.83;;
60370;SDS011;48550;40.588;49.684;2023-03-03T01:53:48;7.95;;;4.35;;
60370;SDS011;48550;40.588;49.684;2023-03-03T01:56:17;11.55;;;4.72;;
60370;SDS011;48550;40.588;49.684;2023-03-03T01:58:44;8.70;;;4.40;;
60370;SDS011;48550;40.588;49.684;2023-03-03T02:01:14;8.30;;;4.45;;
60370;SDS011;48550;40.588;49.684;2023-03-03T02:03:45;9.27;;;4.30;;
60370;SDS011;48550;40.588;49.684;2023-03-03T02:06:15;10.43;;;4.63;;
60370;SDS011;48550;40.588;49.684;2023-03-03T02:08:54;10.68;;;4.85;;
60370;SDS011;48550;40.588;49.684;2023-03-03T02:11:23;10.40;;;5.03;;
60370;SDS011;48550;40.588;49.684;2023-03-03T02:13:51;9.23;;;4.85;;
60370;SDS011;48550;40.588;49.684;2023-03-03T02:16:16;8.88;;;4.78;;
60370;SDS011;48550;40.588;49.684;2023-03-03T02:18:42;9.05;;;4.28;;
60370;SDS011;48550;40.588;49.684;2023-03-03T02:21:15;8.63;;;4.38;;
60370;SDS011;48550;40.588;49.684;2023-03-03T02:26:22;9.10;;;4.47;;
60370;SDS011;48550;40.588;49.684;2023-03-03T02:28:50;8.63;;;4.63;;
60370;SDS011;48550;40.588;49.684;2023-03-03T02:31:18;10.20;;;4.70;;
60370;SDS011;48550;40.588;49.684;2023-03-03T02:33:46;10.48;;;4.75;;
60370;SDS011;48550;40.588;49.684;2023-03-03T02:36:19;8.77;;;4.32;;
60370;SDS011;48550;40.588;49.684;2023-03-03T02:41:34;10.85;;;5.00;;
60370;SDS011;48550;40.588;49.684;2023-03-03T02:44:06;10.02;;;5.30;;
60370;SDS011;48550;40.588;49.684;2023-03-03T02:46:33;10.48;;;4.38;;
60370;SDS011;48550;40.588;49.684;2023-03-03T02:49:02;16.55;;;6.88;;
60370;SDS011;48550;40.588;49.684;2023-03-03T02:51:29;11.38;;;6.05;;
60370;SDS011;48550;40.588;49.684;2023-03-03T02:53:56;13.05;;;5.25;;
60370;SDS011;48550;40.588;49.684;2023-03-03T02:56:21;15.35;;;5.47;;
60370;SDS011;48550;40.588;49.684;2023-03-03T02:58:47;9.85;;;5.20;;
60370;SDS011;48550;40.588;49.684;2023-03-03T03:01:13;10.18;;;5.80;;
60370;SDS011;48550;40.588;49.684;2023-03-03T03:03:39;10.30;;;5.60;;
60370;SDS011;48550;40.588;49.684;2023-03-03T03:06:05;12.98;;;5.55;;
60370;SDS011;48550;40.588;49.684;2023-03-03T03:08:31;12.35;;;5.63;;
60370;SDS011;48550;40.588;49.684;2023-03-03T03:10:56;10.95;;;6.10;;
60370;SDS011;48550;40.588;49.684;2023-03-03T03:13:23;15.77;;;6.43;;
60370;SDS011;48550;40.588;49.684;2023-03-03T03:15:49;15.32;;;6.85;;
60370;SDS011;48550;40.588;49.684;2023-03-03T03:18:15;15.07;;;6.53;;
60370;SDS011;48550;40.588;49.684;2023-03-03T03:20:41;16.13;;;6.32;;
60370;SDS011;48550;40.588;49.684;2023-03-03T03:23:07;14.35;;;6.25;;
60370;SDS011;48550;40.588;49.684;2023-03-03T03:25:34;14.00;;;6.47;;
60370;SDS011;48550;40.588;49.684;2023-03-03T03:28:02;14.38;;;7.05;;
60370;SDS011;48550;40.588;49.684;2023-03-03T03:30:27;13.55;;;6.90;;
60370;SDS011;48550;40.588;49.684;2023-03-03T03:32:53;16.73;;;7.60;;
60370;SDS011;48550;40.588;49.684;2023-03-03T03:35:19;15.63;;;6.72;;
60370;SDS011;48550;40.588;49.684;2023-03-03T03:37:44;16.98;;;7.25;;
60370;SDS011;48550;40.588;49.684;2023-03-03T03:40:10;13.05;;;6.93;;
60370;SDS011;48550;40.588;49.684;2023-03-03T03:42:36;17.88;;;8.23;;
60370;SDS011;48550;40.588;49.684;2023-03-03T03:45:03;17.80;;;7.70;;
60370;SDS011;48550;40.588;49.684;2023-03-03T03:47:30;12.63;;;6.75;;
60370;SDS011;48550;40.588;49.684;2023-03-03T03:49:55;13.68;;;6.95;;
60370;SDS011;48550;40.588;49.684;2023-03-03T03:52:21;13.48;;;7.18;;
60370;SDS011;48550;40.588;49.684;2023-03-03T03:54:47;17.33;;;8.02;;
60370;SDS011;48550;40.588;49.684;2023-03-03T03:57:12;15.77;;;7.63;;
60370;SDS011;48550;40.588;49.684;2023-03-03T03:59:38;11.40;;;6.70;;
60370;SDS011;48550;40.588;49.684;2023-03-03T04:02:04;21.48;;;7.57;;
60370;SDS011;48550;40.588;49.684;2023-03-03T04:04:29;16.38;;;7.63;;
60370;SDS011;48550;40.588;49.684;2023-03-03T04:06:55;15.45;;;8.32;;
60370;SDS011;48550;40.588;49.684;2023-03-03T04:09:21;17.55;;;8.57;;
60370;SDS011;48550;40.588;49.684;2023-03-03T04:11:47;22.15;;;11.45;;
60370;SDS011;48550;40.588;49.684;2023-03-03T04:14:12;16.63;;;7.90;;
60370;SDS011;48550;40.588;49.684;2023-03-03T04:16:38;16.55;;;7.25;;
60370;SDS011;48550;40.588;49.684;2023-03-03T04:19:04;15.85;;;6.72;;
60370;SDS011;48550;40.588;49.684;2023-03-03T04:21:29;16.95;;;9.27;;
60370;SDS011;48550;40.588;49.684;2023-03-03T04:23:55;13.25;;;7.38;;
60370;SDS011;48550;40.588;49.684;2023-03-03T04:26:21;20.05;;;7.18;;
60370;SDS011;48550;40.588;49.684;2023-03-03T04:28:47;13.85;;;7.35;;
60370;SDS011;48550;40.588;49.684;2023-03-03T04:31:13;13.27;;;7.28;;
60370;SDS011;48550;40.588;49.684;2023-03-03T04:33:38;13.85;;;7.68;;
60370;SDS011;48550;40.588;49.684;2023-03-03T04:36:04;16.30;;;7.85;;
60370;SDS011;48550;40.588;49.684;2023-03-03T04:38:30;18.23;;;9.13;;
60370;SDS011;48550;40.588;49.684;2023-03-03T04:40:56;15.65;;;7.47;;
60370;SDS011;48550;40.588;49.684;2023-03-03T04:43:21;18.27;;;8.27;;
60370;SDS011;48550;40.588;49.684;2023-03-03T04:45:47;33.15;;;10.57;;
60370;SDS011;48550;40.588;49.684;2023-03-03T04:48:13;22.80;;;8.45;;
60370;SDS011;48550;40.588;49.684;2023-03-03T04:50:39;17.77;;;8.25;;
60370;SDS011;48550;40.588;49.684;2023-03-03T04:53:06;17.08;;;8.77;;
60370;SDS011;48550;40.588;49.684;2023-03-03T04:55:34;19.90;;;10.52;;
60370;SDS011;48550;40.588;49.684;2023-03-03T04:58:00;21.08;;;9.90;;
60370;SDS011;48550;40.588;49.684;2023-03-03T05:00:26;21.63;;;9.65;;
60370;SDS011;48550;40.588;49.684;2023-03-03T05:02:52;25.90;;;8.60;;
60370;SDS011;48550;40.588;49.684;2023-03-03T05:05:18;15.13;;;8.45;;
60370;SDS011;48550;40.588;49.684;2023-03-03T05:07:43;14.27;;;7.30;;
60370;SDS011;48550;40.588;49.684;2023-03-03T05:10:09;13.25;;;7.03;;
60370;SDS011;48550;40.588;49.684;2023-03-03T05:12:35;18.67;;;9.55;;
60370;SDS011;48550;40.588;49.684;2023-03-03T05:15:01;19.60;;;7.43;;
60370;SDS011;48550;40.588;49.684;2023-03-03T05:17:27;11.43;;;6.35;;
60370;SDS011;48550;40.588;49.684;2023-03-03T05:19:52;11.70;;;6.30;;
60370;SDS011;48550;40.588;49.684;2023-03-03T05:22:18;10.90;;;6.30;;
60370;SDS011;48550;40.588;49.684;2023-03-03T05:24:44;12.18;;;6.53;;
60370;SDS011;48550;40.588;49.684;2023-03-03T05:27:13;13.48;;;6.75;;
60370;SDS011;48550;40.588;49.684;2023-03-03T05:29:39;12.52;;;6.15;;
60370;SDS011;48550;40.588;49.684;2023-03-03T05:32:04;15.18;;;6.78;;
60370;SDS011;48550;40.588;49.684;2023-03-03T05:34:30;12.32;;;6.40;;
60370;SDS011;48550;40.588;49.684;2023-03-03T05:36:56;13.23;;;6.32;;
60370;SDS011;48550;40.588;49.684;2023-03-03T05:39:22;13.00;;;7.03;;
60370;SDS011;48550;40.588;49.684;2023-03-03T05:41:47;11.20;;;5.75;;
60370;SDS011;48550;40.588;49.684;2023-03-03T05:44:13;17.25;;;7.30;;
60370;SDS011;48550;40.588;49.684;2023-03-03T05:46:39;11.93;;;5.85;;
60370;SDS011;48550;40.588;49.684;2023-03-03T05:49:04;10.18;;;5.43;;
60370;SDS011;48550;40.588;49.684;2023-03-03T05:51:30;13.10;;;6.35;;
60370;SDS011;48550;40.588;49.684;2023-03-03T05:53:56;8.93;;;5.30;;
60370;SDS011;48550;40.588;49.684;2023-03-03T05:56:21;13.63;;;5.88;;
60370;SDS011;48550;40.588;49.684;2023-03-03T05:58:47;10.13;;;5.40;;
60370;SDS011;48550;40.588;49.684;2023-03-03T06:01:13;12.52;;;5.75;;
60370;SDS011;48550;40.588;49.684;2023-03-03T06:03:38;11.68;;;5.70;;
60370;SDS011;48550;40.588;49.684;2023-03-03T06:06:04;11.38;;;5.72;;
60370;SDS011;48550;40.588;49.684;2023-03-03T06:08:30;10.60;;;6.00;;
60370;SDS011;48550;40.588;49.684;2023-03-03T06:10:57;9.35;;;5.68;;
60370;SDS011;48550;40.588;49.684;2023-03-03T06:13:22;10.63;;;5.75;;
60370;SDS011;48550;40.588;49.684;2023-03-03T06:15:48;10.15;;;5.30;;
60370;SDS011;48550;40.588;49.684;2023-03-03T06:18:14;12.23;;;5.65;;
60370;SDS011;48550;40.588;49.684;2023-03-03T06:20:39;12.63;;;6.20;;
60370;SDS011;48550;40.588;49.684;2023-03-03T06:23:05;10.32;;;5.60;;
60370;SDS011;48550;40.588;49.684;2023-03-03T06:25:31;14.35;;;5.15;;
60370;SDS011;48550;40.588;49.684;2023-03-03T06:27:59;12.07;;;5.38;;
60370;SDS011;48550;40.588;49.684;2023-03-03T06:30:25;11.10;;;5.82;;
60370;SDS011;48550;40.588;49.684;2023-03-03T06:32:52;11.63;;;6.20;;
60370;SDS011;48550;40.588;49.684;2023-03-03T06:35:18;14.18;;;5.72;;
60370;SDS011;48550;40.588;49.684;2023-03-03T06:37:44;11.95;;;6.20;;
60370;SDS011;48550;40.588;49.684;2023-03-03T06:40:10;12.40;;;4.22;;
60370;SDS011;48550;40.588;49.684;2023-03-03T06:42:36;9.15;;;4.53;;
60370;SDS011;48550;40.588;49.684;2023-03-03T06:45:02;12.63;;;5.18;;
60370;SDS011;48550;40.588;49.684;2023-03-03T06:47:28;10.80;;;5.53;;
60370;SDS011;48550;40.588;49.684;2023-03-03T06:49:54;10.73;;;4.70;;
60370;SDS011;48550;40.588;49.684;2023-03-03T06:52:21;10.38;;;5.07;;
60370;SDS011;48550;40.588;49.684;2023-03-03T06:54:51;9.52;;;4.78;;
60370;SDS011;48550;40.588;49.684;2023-03-03T06:57:26;9.18;;;4.38;;
60370;SDS011;48550;40.588;49.684;2023-03-03T06:59:56;8.57;;;4.40;;
60370;SDS011;48550;40.588;49.684;2023-03-03T07:02:25;12.40;;;4.50;;
60370;SDS011;48550;40.588;49.684;2023-03-03T07:04:51;8.20;;;4.65;;
60370;SDS011;48550;40.588;49.684;2023-03-03T07:07:23;11.73;;;5.10;;
60370;SDS011;48550;40.588;49.684;2023-03-03T07:09:51;10.50;;;5.50;;
60370;SDS011;48550;40.588;49.684;2023-03-03T07:12:20;11.02;;;4.85;;
60370;SDS011;48550;40.588;49.684;2023-03-03T07:14:51;10.80;;;5.05;;
60370;SDS011;48550;40.588;49.684;2023-03-03T07:17:24;16.13;;;4.82;;
60370;SDS011;48550;40.588;49.684;2023-03-03T07:19:50;8.45;;;4.72;;
60370;SDS011;48550;40.588;49.684;2023-03-03T07:22:17;7.82;;;4.00;;
60370;SDS011;48550;40.588;49.684;2023-03-03T07:24:49;11.32;;;4.30;;
60370;SDS011;48550;40.588;49.684;2023-03-03T07:27:20;10.20;;;4.68;;
60370;SDS011;48550;40.588;49.684;2023-03-03T07:29:50;8.77;;;4.67;;
60370;SDS011;48550;40.588;49.684;2023-03-03T07:34:43;8.50;;;4.13;;
60370;SDS011;48550;40.588;49.684;2023-03-03T07:40:00;7.20;;;4.40;;
60370;SDS011;48550;40.588;49.684;2023-03-03T07:42:38;8.38;;;4.15;;
60370;SDS011;48550;40.588;49.684;2023-03-03T07:45:26;10.82;;;5.05;;
60370;SDS011;48550;40.588;49.684;2023-03-03T07:47:54;11.32;;;4.80;;
60370;SDS011;48550;40.588;49.684;2023-03-03T07:50:41;13.32;;;5.20;;
60370;SDS011;48550;40.588;49.684;2023-03-03T07:53:25;10.95;;;5.50;;
60370;SDS011;48550;40.588;49.684;2023-03-03T07:55:54;8.52;;;4.30;;
60370;SDS011;48550;40.588;49.684;2023-03-03T07:58:28;10.43;;;4.90;;
60370;SDS011;48550;40.588;49.684;2023-03-03T08:04:27;9.27;;;4.47;;
60370;SDS011;48550;40.588;49.684;2023-03-03T08:06:57;13.30;;;5.40;;
60370;SDS011;48550;40.588;49.684;2023-03-03T08:10:22;13.60;;;5.60;;
60370;SDS011;48550;40.588;49.684;2023-03-03T08:12:19;14.70;;;5.25;;
60370;SDS011;48550;40.588;49.684;2023-03-03T08:14:57;10.35;;;5.47;;
60370;SDS011;48550;40.588;49.684;2023-03-03T08:17:36;10.07;;;5.47;;
60370;SDS011;48550;40.588;49.684;2023-03-03T08:20:09;11.43;;;5.30;;
60370;SDS011;48550;40.588;49.684;2023-03-03T08:23:08;13.13;;;5.50;;
60370;SDS011;48550;40.588;49.684;2023-03-03T08:25:34;12.77;;;5.25;;
60370;SDS011;48550;40.588;49.684;2023-03-03T08:28:00;14.43;;;5.47;;
60370;SDS011;48550;40.588;49.684;2023-03-03T08:30:26;7.78;;;4.30;;
60370;SDS011;48550;40.588;49.684;2023-03-03T08:32:52;11.07;;;4.80;;
60370;SDS011;48550;40.588;49.684;2023-03-03T08:35:17;9.77;;;5.07;;
60370;SDS011;48550;40.588;49.684;2023-03-03T08:37:43;13.73;;;4.35;;
60370;SDS011;48550;40.588;49.684;2023-03-03T08:40:09;6.13;;;3.28;;
60370;SDS011;48550;40.588;49.684;2023-03-03T08:42:35;10.50;;;4.78;;
60370;SDS011;48550;40.588;49.684;2023-03-03T08:45:00;12.00;;;5.55;;
60370;SDS011;48550;40.588;49.684;2023-03-03T08:47:26;12.35;;;5.20;;
60370;SDS011;48550;40.588;49.684;2023-03-03T08:49:52;11.75;;;5.00;;
60370;SDS011;48550;40.588;49.684;2023-03-03T08:52:18;13.68;;;4.85;;
60370;SDS011;48550;40.588;49.684;2023-03-03T08:54:44;8.75;;;4.13;;
60370;SDS011;48550;40.588;49.684;2023-03-03T08:57:10;8.25;;;4.57;;
60370;SDS011;48550;40.588;49.684;2023-03-03T08:59:36;10.18;;;4.63;;
60370;SDS011;48550;40.588;49.684;2023-03-03T09:02:05;12.90;;;5.18;;
60370;SDS011;48550;40.588;49.684;2023-03-03T09:04:31;10.00;;;4.65;;
60370;SDS011;48550;40.588;49.684;2023-03-03T09:06:57;8.10;;;3.63;;
60370;SDS011;48550;40.588;49.684;2023-03-03T09:09:23;10.02;;;4.22;;
60370;SDS011;48550;40.588;49.684;2023-03-03T09:11:49;12.90;;;4.10;;
60370;SDS011;48550;40.588;49.684;2023-03-03T09:14:15;11.35;;;4.65;;
60370;SDS011;48550;40.588;49.684;2023-03-03T09:21:58;11.10;;;4.60;;
60370;SDS011;48550;40.588;49.684;2023-03-03T09:24:28;8.82;;;5.13;;
60370;SDS011;48550;40.588;49.684;2023-03-03T09:26:55;9.75;;;4.38;;
60370;SDS011;48550;40.588;49.684;2023-03-03T09:31:59;11.27;;;4.75;;
60370;SDS011;48550;40.588;49.684;2023-03-03T09:34:39;8.32;;;4.25;;
60370;SDS011;48550;40.588;49.684;2023-03-03T09:39:38;12.27;;;4.70;;
60370;SDS011;48550;40.588;49.684;2023-03-03T09:50:20;14.15;;;4.20;;
60370;SDS011;48550;40.588;49.684;2023-03-03T09:58:15;9.80;;;4.68;;
60370;SDS011;48550;40.588;49.684;2023-03-03T10:01:14;12.65;;;4.22;;
60370;SDS011;48550;40.588;49.684;2023-03-03T10:06:46;10.52;;;4.78;;
60370;SDS011;48550;40.588;49.684;2023-03-03T10:26:04;8.85;;;3.95;;
60370;SDS011;48550;40.588;49.684;2023-03-03T10:37:16;7.93;;;3.42;;
60370;SDS011;48550;40.588;49.684;2023-03-03T10:56:41;11.68;;;4.38;;
60370;SDS011;48550;40.588;49.684;2023-03-03T11:02:16;9.27;;;4.43;;
60370;SDS011;48550;40.588;49.684;2023-03-03T11:07:49;11.52;;;4.82;;
60370;SDS011;48550;40.588;49.684;2023-03-03T11:21:24;13.32;;;5.63;;
60370;SDS011;48550;40.588;49.684;2023-03-03T11:40:31;15.60;;;4.95;;
60370;SDS011;48550;40.588;49.684;2023-03-03T11:45:50;6.03;;;3.70;;
60370;SDS011;48550;40.588;49.684;2023-03-03T11:56:26;13.93;;;6.10;;
60370;SDS011;48550;40.588;49.684;2023-03-03T11:58:58;8.00;;;4.13;;
60370;SDS011;48550;40.588;49.684;2023-03-03T12:01:40;12.27;;;5.05;;
60370;SDS011;48550;40.588;49.684;2023-03-03T12:04:49;9.27;;;4.88;;
60370;SDS011;48550;40.588;49.684;2023-03-03T12:13:17;10.63;;;4.75;;
60370;SDS011;48550;40.588;49.684;2023-03-03T12:15:59;13.48;;;5.57;;
60370;SDS011;48550;40.588;49.684;2023-03-03T12:18:49;15.85;;;5.18;;
60370;SDS011;48550;40.588;49.684;2023-03-03T12:24:53;11.98;;;5.97;;
60370;SDS011;48550;40.588;49.684;2023-03-03T12:27:38;12.80;;;5.35;;
60370;SDS011;48550;40.588;49.684;2023-03-03T12:36:14;18.42;;;5.57;;
60370;SDS011;48550;40.588;49.684;2023-03-03T12:42:02;11.27;;;4.45;;
60370;SDS011;48550;40.588;49.684;2023-03-03T12:44:54;15.73;;;4.90;;
60370;SDS011;48550;40.588;49.684;2023-03-03T12:47:28;10.38;;;4.97;;
60370;SDS011;48550;40.588;49.684;2023-03-03T12:58:07;16.33;;;5.05;;
60370;SDS011;48550;40.588;49.684;2023-03-03T13:00:52;30.77;;;5.75;;
60370;SDS011;48550;40.588;49.684;2023-03-03T13:12:23;14.48;;;5.28;;
60370;SDS011;48550;40.588;49.684;2023-03-03T13:20:07;15.45;;;5.60;;
60370;SDS011;48550;40.588;49.684;2023-03-03T13:22:45;8.90;;;5.28;;
60370;SDS011;48550;40.588;49.684;2023-03-03T13:28:13;9.70;;;4.43;;
60370;SDS011;48550;40.588;49.684;2023-03-03T13:30:51;11.20;;;4.43;;
60370;SDS011;48550;40.588;49.684;2023-03-03T13:33:28;8.73;;;4.63;;
60370;SDS011;48550;40.588;49.684;2023-03-03T13:36:04;8.48;;;4.43;;
60370;SDS011;48550;40.588;49.684;2023-03-03T13:38:39;7.22;;;4.07;;
60370;SDS011;48550;40.588;49.684;2023-03-03T13:44:41;15.50;;;5.22;;
60370;SDS011;48550;40.588;49.684;2023-03-03T13:49:58;10.38;;;4.97;;
60370;SDS011;48550;40.588;49.684;2023-03-03T13:52:28;9.68;;;4.85;;
60370;SDS011;48550;40.588;49.684;2023-03-03T14:00:39;17.40;;;6.80;;
60370;SDS011;48550;40.588;49.684;2023-03-03T14:06:04;13.88;;;4.80;;
60370;SDS011;48550;40.588;49.684;2023-03-03T14:08:43;12.55;;;5.50;;
60370;SDS011;48550;40.588;49.684;2023-03-03T14:22:17;15.38;;;5.80;;
60370;SDS011;48550;40.588;49.684;2023-03-03T14:25:08;12.07;;;5.43;;
60370;SDS011;48550;40.588;49.684;2023-03-03T14:27:36;14.07;;;6.07;;
60370;SDS011;48550;40.588;49.684;2023-03-03T14:35:35;19.55;;;6.93;;
60370;SDS011;48550;40.588;49.684;2023-03-03T14:38:13;17.63;;;7.93;;
60370;SDS011;48550;40.588;49.684;2023-03-03T14:40:44;12.60;;;6.20;;
60370;SDS011;48550;40.588;49.684;2023-03-03T14:43:24;57.67;;;18.38;;
60370;SDS011;48550;40.588;49.684;2023-03-03T14:48:57;28.40;;;9.70;;
60370;SDS011;48550;40.588;49.684;2023-03-03T14:51:39;19.67;;;8.18;;
60370;SDS011;48550;40.588;49.684;2023-03-03T14:54:21;24.02;;;9.43;;
60370;SDS011;48550;40.588;49.684;2023-03-03T14:57:37;14.18;;;7.28;;
60370;SDS011;48550;40.588;49.684;2023-03-03T15:02:28;21.45;;;7.55;;
60370;SDS011;48550;40.588;49.684;2023-03-03T15:05:30;14.93;;;6.20;;
60370;SDS011;48550;40.588;49.684;2023-03-03T15:07:55;20.35;;;7.97;;
60370;SDS011;48550;40.588;49.684;2023-03-03T15:10:39;13.50;;;5.97;;
60370;SDS011;48550;40.588;49.684;2023-03-03T15:18:33;10.13;;;5.10;;
60370;SDS011;48550;40.588;49.684;2023-03-03T15:21:12;9.00;;;5.22;;
60370;SDS011;48550;40.588;49.684;2023-03-03T15:40:29;13.68;;;4.57;;
60370;SDS011;48550;40.588;49.684;2023-03-03T15:43:05;17.70;;;7.00;;
60370;SDS011;48550;40.588;49.684;2023-03-03T15:45:52;17.20;;;5.78;;
60370;SDS011;48550;40.588;49.684;2023-03-03T15:48:31;14.57;;;6.00;;
60370;SDS011;48550;40.588;49.684;2023-03-03T16:14:34;9.52;;;4.97;;
60370;SDS011;48550;40.588;49.684;2023-03-03T16:17:23;8.05;;;4.35;;
60370;SDS011;48550;40.588;49.684;2023-03-03T16:22:55;10.20;;;5.70;;
60370;SDS011;48550;40.588;49.684;2023-03-03T16:28:42;10.90;;;4.80;;
60370;SDS011;48550;40.588;49.684;2023-03-03T16:31:22;10.77;;;5.15;;
60370;SDS011;48550;40.588;49.684;2023-03-03T16:37:13;16.83;;;7.20;;
60370;SDS011;48550;40.588;49.684;2023-03-03T16:56:03;15.50;;;7.80;;
60370;SDS011;48550;40.588;49.684;2023-03-03T17:09:31;14.50;;;7.60;;
60370;SDS011;48550;40.588;49.684;2023-03-03T17:12:45;19.15;;;7.80;;
60370;SDS011;48550;40.588;49.684;2023-03-03T17:15:15;23.95;;;7.38;;
60370;SDS011;48550;40.588;49.684;2023-03-03T17:21:21;20.27;;;6.95;;
60370;SDS011;48550;40.588;49.684;2023-03-03T17:23:58;15.25;;;6.97;;
60370;SDS011;48550;40.588;49.684;2023-03-03T17:35:48;17.23;;;7.25;;
60370;SDS011;48550;40.588;49.684;2023-03-03T17:38:30;13.80;;;7.10;;
60370;SDS011;48550;40.588;49.684;2023-03-03T17:41:08;16.90;;;6.78;;
60370;SDS011;48550;40.588;49.684;2023-03-03T17:44:01;16.92;;;7.20;;
60370;SDS011;48550;40.588;49.684;2023-03-03T18:15:40;14.10;;;7.00;;
60370;SDS011;48550;40.588;49.684;2023-03-03T18:20:58;18.55;;;7.38;;
60370;SDS011;48550;40.588;49.684;2023-03-03T18:23:38;13.75;;;7.40;;
60370;SDS011;48550;40.588;49.684;2023-03-03T18:29:19;13.82;;;7.22;;
60370;SDS011;48550;40.588;49.684;2023-03-03T18:37:00;18.15;;;7.55;;
60370;SDS011;48550;40.588;49.684;2023-03-03T18:44:29;14.85;;;7.03;;
60370;SDS011;48550;40.588;49.684;2023-03-03T18:46:55;12.90;;;6.53;;
60370;SDS011;48550;40.588;49.684;2023-03-03T18:52:27;13.30;;;6.93;;
60370;SDS011;48550;40.588;49.684;2023-03-03T18:57:35;12.98;;;6.07;;
60370;SDS011;48550;40.588;49.684;2023-03-03T19:00:15;13.98;;;6.25;;
60370;SDS011;48550;40.588;49.684;2023-03-03T19:02:53;12.50;;;6.78;;
60370;SDS011;48550;40.588;49.684;2023-03-03T19:05:33;14.13;;;6.68;;
60370;SDS011;48550;40.588;49.684;2023-03-03T19:08:41;14.93;;;7.35;;
60370;SDS011;48550;40.588;49.684;2023-03-03T19:11:32;14.65;;;6.95;;
60370;SDS011;48550;40.588;49.684;2023-03-03T19:16:42;15.73;;;6.97;;
60370;SDS011;48550;40.588;49.684;2023-03-03T19:19:09;14.82;;;8.18;;
60370;SDS011;48550;40.588;49.684;2023-03-03T19:21:40;15.57;;;8.18;;
60370;SDS011;48550;40.588;49.684;2023-03-03T19:24:23;16.83;;;8.13;;
60370;SDS011;48550;40.588;49.684;2023-03-03T19:26:57;14.32;;;8.10;;
60370;SDS011;48550;40.588;49.684;2023-03-03T19:29:33;15.00;;;7.55;;
60370;SDS011;48550;40.588;49.684;2023-03-03T19:35:14;24.15;;;7.78;;
60370;SDS011;48550;40.588;49.684;2023-03-03T19:48:49;56.38;;;23.17;;
60370;SDS011;48550;40.588;49.684;2023-03-03T19:56:47;18.75;;;8.23;;
60370;SDS011;48550;40.588;49.684;2023-03-03T19:59:26;12.23;;;6.80;;
60370;SDS011;48550;40.588;49.684;2023-03-03T20:07:48;15.02;;;7.65;;
60370;SDS011;48550;40.588;49.684;2023-03-03T20:16:07;17.17;;;7.60;;
60370;SDS011;48550;40.588;49.684;2023-03-03T20:21:37;11.63;;;7.00;;
60370;SDS011;48550;40.588;49.684;2023-03-03T20:24:19;12.52;;;7.38;;
60370;SDS011;48550;40.588;49.684;2023-03-03T20:33:02;20.35;;;9.20;;
60370;SDS011;48550;40.588;49.684;2023-03-03T20:38:31;15.38;;;7.95;;
60370;SDS011;48550;40.588;49.684;2023-03-03T20:47:08;14.00;;;8.10;;
60370;SDS011;48550;40.588;49.684;2023-03-03T20:54:43;24.88;;;9.65;;
60370;SDS011;48550;40.588;49.684;2023-03-03T20:57:29;20.10;;;8.70;;
60370;SDS011;48550;40.588;49.684;2023-03-03T21:02:45;22.90;;;8.70;;
60370;SDS011;48550;40.588;49.684;2023-03-03T21:05:18;19.40;;;10.00;;
60370;SDS011;48550;40.588;49.684;2023-03-03T21:10:21;19.45;;;9.75;;
60370;SDS011;48550;40.588;49.684;2023-03-03T21:12:55;20.70;;;9.15;;
60370;SDS011;48550;40.588;49.684;2023-03-03T21:17:55;19.77;;;9.38;;
60370;SDS011;48550;40.588;49.684;2023-03-03T21:20:27;20.38;;;8.68;;
60370;SDS011;48550;40.588;49.684;2023-03-03T21:22:58;18.73;;;9.65;;
60370;SDS011;48550;40.588;49.684;2023-03-03T21:30:57;16.30;;;8.88;;
60370;SDS011;48550;40.588;49.684;2023-03-03T21:36:21;15.07;;;9.73;;
60370;SDS011;48550;40.588;49.684;2023-03-03T21:38:48;17.80;;;8.88;;
60370;SDS011;48550;40.588;49.684;2023-03-03T21:41:15;21.27;;;10.10;;
60370;SDS011;48550;40.588;49.684;2023-03-03T21:43:43;20.88;;;9.90;;
60370;SDS011;48550;40.588;49.684;2023-03-03T21:46:12;20.95;;;10.25;;
60370;SDS011;48550;40.588;49.684;2023-03-03T21:48:41;20.95;;;10.75;;
60370;SDS011;48550;40.588;49.684;2023-03-03T21:51:07;19.52;;;8.38;;
60370;SDS011;48550;40.588;49.684;2023-03-03T21:53:34;17.70;;;8.57;;
60370;SDS011;48550;40.588;49.684;2023-03-03T21:56:01;16.27;;;8.40;;
60370;SDS011;48550;40.588;49.684;2023-03-03T21:58:27;20.50;;;9.40;;
60370;SDS011;48550;40.588;49.684;2023-03-03T22:00:54;15.20;;;7.50;;
60370;SDS011;48550;40.588;49.684;2023-03-03T22:03:20;15.13;;;8.82;;
60370;SDS011;48550;40.588;49.684;2023-03-03T22:05:46;13.35;;;7.80;;
60370;SDS011;48550;40.588;49.684;2023-03-03T22:08:15;19.23;;;10.23;;